Time;durP1;ratioP1;P1;durP2;ratioP2;P2;SDS_P1;SDS_P2;PMS_P1;PMS_P2;Temp;Humidity;BMP_temperature;BMP_pressure;BME280_temperature;BME280_humidity;BME280_pressure;Samples;Min_cycle;Max_cycle;Signal;HPM_P1;HPM_P2
2023/09/26 00:00:43;;;;;;;19.90;17.23;;;;;;;;;;2090757;28;20086;-55
2023/09/26 00:01:43;;;;;;;21.73;18.00;;;;;;;;;;2090669;28;20033;-54
2023/09/26 00:02:45;;;;;;;24.10;17.13;;;;;;;;;;2090382;28;20060;-55
2023/09/26 00:03:46;;;;;;;19.88;14.57;;;;;;;;;;2090510;28;20052;-55
2023/09/26 00:04:47;;;;;;;19.55;16.00;;;;;;;;;;2090465;28;20041;-53
2023/09/26 00:05:48;;;;;;;24.20;17.95;;;;;;;;;;2090773;28;20072;-54
2023/09/26 00:06:49;;;;;;;25.33;18.73;;;;;;;;;;2090687;28;20040;-55
2023/09/26 00:07:51;;;;;;;23.83;18.38;;;;;;;;;;2090938;28;20029;-55
2023/09/26 00:08:55;;;;;;;23.80;17.80;;;;;;;;;;2091040;28;20076;-55
2023/09/26 00:09:56;;;;;;;24.88;18.60;;;;;;;;;;2090808;28;20045;-55
2023/09/26 00:10:57;;;;;;;26.38;19.65;;;;;;;;;;2090914;28;20461;-55
2023/09/26 00:11:57;;;;;;;24.67;19.92;;;;;;;;;;2090956;28;20048;-55
2023/09/26 00:12:58;;;;;;;22.38;17.73;;;;;;;;;;2090742;28;20457;-55
2023/09/26 00:13:59;;;;;;;26.75;19.23;;;;;;;;;;2090620;28;20082;-55
2023/09/26 00:15:00;;;;;;;28.45;22.60;;;;;;;;;;2090648;28;20447;-55
2023/09/26 00:16:01;;;;;;;32.63;23.55;;;;;;;;;;2090292;28;20036;-55
2023/09/26 00:17:03;;;;;;;28.83;21.00;;;;;;;;;;2089414;28;20048;-55
2023/09/26 00:18:05;;;;;;;22.60;17.52;;;;;;;;;;2090642;28;20056;-55
2023/09/26 00:19:06;;;;;;;26.30;19.00;;;;;;;;;;2090543;28;20390;-55
2023/09/26 00:20:15;;;;;;;25.40;20.70;;;;;;;;;;2090661;28;20405;-54
2023/09/26 00:21:16;;;;;;;27.35;19.88;;;;;;;;;;2091041;28;20033;-55
2023/09/26 00:22:17;;;;;;;23.63;17.75;;;;;;;;;;2090710;28;20124;-55
2023/09/26 00:23:17;;;;;;;20.55;17.00;;;;;;;;;;2090302;28;20079;-55
2023/09/26 00:24:18;;;;;;;20.67;17.00;;;;;;;;;;2090158;28;20044;-54
2023/09/26 00:25:19;;;;;;;22.63;16.25;;;;;;;;;;2089967;28;20025;-55
2023/09/26 00:26:19;;;;;;;21.40;16.48;;;;;;;;;;2090730;28;20044;-55
2023/09/26 00:27:22;;;;;;;21.75;16.65;;;;;;;;;;2090761;28;20040;-55
2023/09/26 00:28:22;;;;;;;19.05;16.33;;;;;;;;;;2090528;28;20071;-55
2023/09/26 00:29:23;;;;;;;18.65;16.00;;;;;;;;;;2090282;28;20048;-55
2023/09/26 00:30:26;;;;;;;19.23;15.10;;;;;;;;;;2089986;28;20029;-55
2023/09/26 00:31:26;;;;;;;18.92;15.95;;;;;;;;;;2090131;28;20033;-54
2023/09/26 00:32:28;;;;;;;20.00;16.75;;;;;;;;;;2090114;28;20068;-54
2023/09/26 00:33:29;;;;;;;22.33;17.00;;;;;;;;;;2090092;28;20037;-53
2023/09/26 00:34:30;;;;;;;21.30;15.80;;;;;;;;;;2090515;28;20477;-55
2023/09/26 00:35:31;;;;;;;18.17;16.20;;;;;;;;;;2090585;28;20029;-54
2023/09/26 00:36:32;;;;;;;18.92;15.48;;;;;;;;;;2090417;28;20048;-55
2023/09/26 00:37:33;;;;;;;19.48;16.30;;;;;;;;;;2090414;28;20382;-55
2023/09/26 00:38:34;;;;;;;18.83;16.48;;;;;;;;;;2090860;28;20029;-55
2023/09/26 00:39:36;;;;;;;18.85;15.48;;;;;;;;;;2089851;28;20090;-55
2023/09/26 00:40:39;;;;;;;20.50;15.70;;;;;;;;;;2089807;28;20032;-55
2023/09/26 00:41:39;;;;;;;17.27;14.93;;;;;;;;;;2089542;28;20060;-55
2023/09/26 00:42:40;;;;;;;22.92;14.80;;;;;;;;;;2090443;28;20075;-55
2023/09/26 00:43:41;;;;;;;17.45;14.35;;;;;;;;;;2090445;28;20384;-55
2023/09/26 00:44:41;;;;;;;17.45;14.88;;;;;;;;;;2090482;28;20051;-55
2023/09/26 00:45:42;;;;;;;17.83;12.98;;;;;;;;;;2090452;28;20025;-60
2023/09/26 00:46:43;;;;;;;18.33;14.40;;;;;;;;;;2089882;28;20036;-55
2023/09/26 00:47:44;;;;;;;19.63;13.80;;;;;;;;;;2089921;28;20033;-55
2023/09/26 00:48:44;;;;;;;17.10;13.52;;;;;;;;;;2089856;28;20125;-55
2023/09/26 00:49:45;;;;;;;16.42;13.27;;;;;;;;;;2081582;28;20036;-55
2023/09/26 00:50:46;;;;;;;17.42;14.82;;;;;;;;;;2089900;28;20020;-56
2023/09/26 00:51:47;;;;;;;19.58;15.02;;;;;;;;;;2089976;28;20507;-55
2023/09/26 00:52:49;;;;;;;18.92;14.18;;;;;;;;;;2089858;28;20088;-55
2023/09/26 00:53:50;;;;;;;17.08;12.75;;;;;;;;;;2089334;28;20045;-55
2023/09/26 00:54:50;;;;;;;16.30;14.02;;;;;;;;;;2081663;28;20042;-55
2023/09/26 00:55:52;;;;;;;19.58;13.68;;;;;;;;;;2089840;28;20029;-55
2023/09/26 00:56:52;;;;;;;16.10;13.48;;;;;;;;;;2090333;28;20041;-56
2023/09/26 00:57:54;;;;;;;18.05;13.25;;;;;;;;;;2090942;28;20057;-55
2023/09/26 00:58:56;;;;;;;15.43;13.15;;;;;;;;;;2088872;28;20041;-55
2023/09/26 00:59:57;;;;;;;16.13;12.38;;;;;;;;;;2081635;28;20049;-55
2023/09/26 01:00:58;;;;;;;17.35;12.57;;;;;;;;;;2089805;28;20109;-54
2023/09/26 01:01:59;;;;;;;15.23;12.93;;;;;;;;;;2090298;28;20048;-55
2023/09/26 01:02:59;;;;;;;16.70;13.13;;;;;;;;;;2090409;28;20466;-55
2023/09/26 01:04:00;;;;;;;15.38;12.50;;;;;;;;;;2089165;28;20083;-55
2023/09/26 01:05:01;;;;;;;17.50;14.55;;;;;;;;;;2081446;28;20083;-55
2023/09/26 01:06:03;;;;;;;18.77;14.98;;;;;;;;;;2089676;28;20076;-55
2023/09/26 01:07:03;;;;;;;18.33;15.00;;;;;;;;;;2088958;28;20045;-55
2023/09/26 01:08:04;;;;;;;18.38;14.65;;;;;;;;;;2089434;28;20476;-55
2023/09/26 01:09:10;;;;;;;19.73;14.32;;;;;;;;;;2089725;28;20086;-55
2023/09/26 01:10:10;;;;;;;17.73;13.88;;;;;;;;;;2089928;28;20401;-56
2023/09/26 01:11:11;;;;;;;18.70;14.27;;;;;;;;;;2089631;28;20052;-55
2023/09/26 01:12:12;;;;;;;18.35;14.00;;;;;;;;;;2089797;28;20044;-55
2023/09/26 01:13:13;;;;;;;18.83;14.60;;;;;;;;;;2081625;28;20045;-55
2023/09/26 01:14:13;;;;;;;18.25;14.75;;;;;;;;;;2089382;28;20051;-55
2023/09/26 01:15:29;;;;;;;17.80;15.13;;;;;;;;;;2089721;28;20045;-55
2023/09/26 01:16:29;;;;;;;19.08;15.77;;;;;;;;;;2088904;28;20051;-55
2023/09/26 01:17:31;;;;;;;17.88;15.93;;;;;;;;;;2090187;28;20041;-55
2023/09/26 01:18:33;;;;;;;17.48;14.50;;;;;;;;;;2089996;28;20057;-55
2023/09/26 01:19:34;;;;;;;19.55;14.90;;;;;;;;;;2090337;28;20052;-55
2023/09/26 01:20:43;;;;;;;20.92;14.70;;;;;;;;;;2090387;28;20484;-55
2023/09/26 01:21:44;;;;;;;20.13;15.23;;;;;;;;;;2090278;28;20029;-55
2023/09/26 01:22:48;;;;;;;17.05;14.80;;;;;;;;;;2089476;28;20041;-55
2023/09/26 01:23:57;;;;;;;18.67;14.50;;;;;;;;;;2089496;28;20048;-54
2023/09/26 01:24:57;;;;;;;20.60;16.25;;;;;;;;;;2089786;28;20055;-55
2023/09/26 01:25:59;;;;;;;18.67;15.60;;;;;;;;;;2089545;28;20036;-55
2023/09/26 01:27:00;;;;;;;19.13;15.73;;;;;;;;;;2089304;28;20439;-56
2023/09/26 01:28:06;;;;;;;20.50;16.55;;;;;;;;;;2089604;28;20048;-55
2023/09/26 01:29:07;;;;;;;20.35;16.42;;;;;;;;;;2089575;28;20053;-55
2023/09/26 01:30:08;;;;;;;21.50;16.58;;;;;;;;;;2089330;28;20548;-56
2023/09/26 01:31:11;;;;;;;22.90;17.75;;;;;;;;;;2081639;28;20041;-55
2023/09/26 01:32:12;;;;;;;21.13;16.10;;;;;;;;;;2089673;28;20469;-55
2023/09/26 01:33:16;;;;;;;22.52;17.98;;;;;;;;;;2090251;28;20044;-55
2023/09/26 01:34:17;;;;;;;21.02;16.67;;;;;;;;;;2090166;28;20045;-55
2023/09/26 01:35:18;;;;;;;21.42;16.13;;;;;;;;;;2090139;28;20059;-55
2023/09/26 01:36:19;;;;;;;20.80;15.60;;;;;;;;;;2089028;28;20041;-55
2023/09/26 01:37:20;;;;;;;21.83;15.88;;;;;;;;;;2089707;28;20036;-55
2023/09/26 01:38:22;;;;;;;18.95;15.68;;;;;;;;;;2090213;28;20059;-55
2023/09/26 01:39:23;;;;;;;23.35;19.42;;;;;;;;;;2090079;28;20041;-55
2023/09/26 01:40:24;;;;;;;24.58;18.05;;;;;;;;;;2090147;28;20041;-54
2023/09/26 01:41:26;;;;;;;21.23;16.17;;;;;;;;;;2090184;28;20029;-55
2023/09/26 01:42:27;;;;;;;19.70;15.88;;;;;;;;;;2090183;28;20401;-56
2023/09/26 01:43:27;;;;;;;20.98;17.02;;;;;;;;;;2088993;28;20424;-55
2023/09/26 01:44:28;;;;;;;20.30;16.38;;;;;;;;;;2081320;28;20042;-55
2023/09/26 01:45:29;;;;;;;24.20;17.60;;;;;;;;;;2089290;28;20132;-54
2023/09/26 01:46:30;;;;;;;20.50;16.00;;;;;;;;;;2090132;28;20045;-55
2023/09/26 01:47:32;;;;;;;20.95;16.08;;;;;;;;;;2089070;28;20136;-55
2023/09/26 01:48:33;;;;;;;19.55;14.95;;;;;;;;;;2081524;28;20041;-55
2023/09/26 01:49:34;;;;;;;19.70;14.30;;;;;;;;;;2089527;28;20501;-54
2023/09/26 01:50:37;;;;;;;18.88;14.80;;;;;;;;;;2089737;28;20049;-55
2023/09/26 01:51:38;;;;;;;17.85;14.68;;;;;;;;;;2089584;28;20040;-55
2023/09/26 01:52:39;;;;;;;16.58;13.60;;;;;;;;;;2088703;28;20052;-55
2023/09/26 01:53:40;;;;;;;16.48;13.50;;;;;;;;;;2089772;28;20479;-55
2023/09/26 01:54:41;;;;;;;16.17;12.77;;;;;;;;;;2090123;28;20040;-55
2023/09/26 01:55:41;;;;;;;16.25;12.30;;;;;;;;;;2090158;28;20047;-55
2023/09/26 01:56:42;;;;;;;17.73;12.90;;;;;;;;;;2090302;28;20045;-55
2023/09/26 01:57:43;;;;;;;18.45;13.10;;;;;;;;;;2090068;28;20053;-55
2023/09/26 01:58:43;;;;;;;16.35;13.18;;;;;;;;;;2089255;28;20078;-54
2023/09/26 01:59:45;;;;;;;22.08;14.50;;;;;;;;;;2081488;28;20038;-55
2023/09/26 02:00:46;;;;;;;20.45;14.32;;;;;;;;;;2089574;28;20058;-55
2023/09/26 02:01:46;;;;;;;16.30;13.63;;;;;;;;;;2090021;28;20052;-55
2023/09/26 02:02:48;;;;;;;19.20;14.63;;;;;;;;;;2090274;28;20033;-53
2023/09/26 02:03:50;;;;;;;18.60;13.45;;;;;;;;;;2090177;28;20044;-55
2023/09/26 02:04:50;;;;;;;18.10;14.93;;;;;;;;;;2090194;28;20072;-56
2023/09/26 02:05:51;;;;;;;20.52;16.42;;;;;;;;;;2090401;28;20044;-58
2023/09/26 02:06:52;;;;;;;18.52;14.77;;;;;;;;;;2091467;28;20033;-55
2023/09/26 02:07:53;;;;;;;20.52;16.15;;;;;;;;;;2092276;28;20053;-54
2023/09/26 02:08:53;;;;;;;20.13;15.43;;;;;;;;;;2091586;28;20044;-57
2023/09/26 02:09:54;;;;;;;21.88;16.98;;;;;;;;;;2083391;28;20037;-57
2023/09/26 02:10:55;;;;;;;25.70;17.77;;;;;;;;;;2082943;28;20049;-53
2023/09/26 02:11:55;;;;;;;21.88;18.05;;;;;;;;;;2089786;28;20037;-56
2023/09/26 02:12:56;;;;;;;24.70;18.15;;;;;;;;;;2090164;28;20404;-55
2023/09/26 02:13:57;;;;;;;26.60;20.13;;;;;;;;;;2089200;28;20144;-55
2023/09/26 02:14:58;;;;;;;27.88;19.83;;;;;;;;;;2089439;28;20473;-55
2023/09/26 02:15:58;;;;;;;23.92;18.33;;;;;;;;;;2089384;28;20159;-55
2023/09/26 02:16:59;;;;;;;27.70;21.13;;;;;;;;;;2089533;28;20045;-55
2023/09/26 02:18:00;;;;;;;26.48;19.60;;;;;;;;;;2089917;28;20029;-55
2023/09/26 02:19:01;;;;;;;26.08;19.98;;;;;;;;;;2089668;28;20056;-60
2023/09/26 02:20:02;;;;;;;26.75;20.15;;;;;;;;;;2089608;28;20095;-55
2023/09/26 02:21:03;;;;;;;30.75;23.20;;;;;;;;;;2081500;28;20041;-54
2023/09/26 02:22:04;;;;;;;30.40;22.33;;;;;;;;;;2081194;28;20075;-54
2023/09/26 02:23:04;;;;;;;25.30;20.33;;;;;;;;;;2089226;28;20118;-54
2023/09/26 02:24:05;;;;;;;27.27;21.00;;;;;;;;;;2089739;28;20055;-55
2023/09/26 02:25:06;;;;;;;26.55;20.92;;;;;;;;;;2090018;28;20025;-55
2023/09/26 02:26:07;;;;;;;27.20;20.35;;;;;;;;;;2089953;28;20045;-54
2023/09/26 02:27:07;;;;;;;26.08;20.13;;;;;;;;;;2090081;28;20033;-55
2023/09/26 02:28:08;;;;;;;26.08;19.75;;;;;;;;;;2090897;28;20083;-55
2023/09/26 02:29:09;;;;;;;26.17;21.35;;;;;;;;;;2091467;28;20036;-55
2023/09/26 02:30:10;;;;;;;26.60;19.55;;;;;;;;;;2091589;28;20033;-54
2023/09/26 02:31:15;;;;;;;26.67;19.52;;;;;;;;;;2091415;28;20488;-55
2023/09/26 02:32:15;;;;;;;26.58;19.15;;;;;;;;;;2091652;28;20055;-54
2023/09/26 02:33:16;;;;;;;23.80;18.08;;;;;;;;;;2090541;28;20052;-54
2023/09/26 02:34:17;;;;;;;21.40;18.02;;;;;;;;;;2090894;28;20056;-55
2023/09/26 02:35:20;;;;;;;24.55;19.50;;;;;;;;;;2091503;28;20037;-54
2023/09/26 02:36:21;;;;;;;21.55;17.48;;;;;;;;;;2091905;28;20452;-55
2023/09/26 02:37:23;;;;;;;24.25;19.48;;;;;;;;;;2090889;28;20044;-55
2023/09/26 02:38:25;;;;;;;23.55;18.77;;;;;;;;;;2091046;28;20045;-54
2023/09/26 02:39:26;;;;;;;21.40;17.05;;;;;;;;;;2091404;28;20047;-55
2023/09/26 02:40:27;;;;;;;24.38;18.08;;;;;;;;;;2091446;28;20051;-55
2023/09/26 02:41:27;;;;;;;24.70;17.10;;;;;;;;;;2091590;28;20033;-55
2023/09/26 02:42:28;;;;;;;22.70;17.92;;;;;;;;;;2090749;28;20041;-54
2023/09/26 02:43:29;;;;;;;22.48;17.00;;;;;;;;;;2090598;28;20052;-54
2023/09/26 02:44:29;;;;;;;21.80;18.73;;;;;;;;;;2090967;28;20512;-54
2023/09/26 02:45:30;;;;;;;22.25;17.45;;;;;;;;;;2090531;28;20500;-55
2023/09/26 02:46:31;;;;;;;20.63;17.95;;;;;;;;;;2091486;28;20029;-55
2023/09/26 02:47:32;;;;;;;21.45;17.15;;;;;;;;;;2090924;28;20037;-55
2023/09/26 02:48:34;;;;;;;21.95;17.75;;;;;;;;;;2091357;28;20037;-55
2023/09/26 02:49:35;;;;;;;19.27;15.00;;;;;;;;;;2090898;28;20032;-54
2023/09/26 02:50:35;;;;;;;24.80;16.88;;;;;;;;;;2090418;28;20508;-55
2023/09/26 02:51:36;;;;;;;21.65;16.42;;;;;;;;;;2090753;28;20424;-55
2023/09/26 02:52:38;;;;;;;18.80;15.32;;;;;;;;;;2090714;28;20056;-55
2023/09/26 02:53:39;;;;;;;22.83;17.10;;;;;;;;;;2091455;28;20041;-55
2023/09/26 02:54:40;;;;;;;21.48;16.25;;;;;;;;;;2090966;28;20037;-54
2023/09/26 02:55:41;;;;;;;22.35;16.73;;;;;;;;;;2090600;28;20044;-55
2023/09/26 02:56:41;;;;;;;22.70;17.52;;;;;;;;;;2091467;28;20388;-55
2023/09/26 02:57:43;;;;;;;24.38;18.15;;;;;;;;;;2091250;28;20045;-55
2023/09/26 02:58:44;;;;;;;23.13;17.83;;;;;;;;;;2091077;28;20037;-55
2023/09/26 02:59:45;;;;;;;23.27;18.27;;;;;;;;;;2091287;28;20380;-54
2023/09/26 03:00:49;;;;;;;26.45;18.58;;;;;;;;;;2091399;28;20032;-54
2023/09/26 03:01:51;;;;;;;23.95;18.67;;;;;;;;;;2090701;28;20047;-55
2023/09/26 03:02:52;;;;;;;24.92;19.00;;;;;;;;;;2090194;28;20044;-55
2023/09/26 03:03:53;;;;;;;26.50;20.23;;;;;;;;;;2090665;28;20025;-54
2023/09/26 03:04:54;;;;;;;27.52;21.65;;;;;;;;;;2090499;28;20044;-55
2023/09/26 03:05:55;;;;;;;29.80;22.05;;;;;;;;;;2091276;28;20045;-55
2023/09/26 03:06:56;;;;;;;27.88;21.38;;;;;;;;;;2090842;28;20043;-54
2023/09/26 03:07:57;;;;;;;29.15;21.45;;;;;;;;;;2090755;28;20532;-55
2023/09/26 03:08:57;;;;;;;26.98;20.92;;;;;;;;;;2091296;28;20469;-55
2023/09/26 03:09:58;;;;;;;26.95;21.15;;;;;;;;;;2091286;28;20059;-54
2023/09/26 03:10:59;;;;;;;23.83;18.48;;;;;;;;;;2091184;28;20045;-55
2023/09/26 03:12:00;;;;;;;27.15;18.73;;;;;;;;;;2090649;28;20098;-55
2023/09/26 03:13:02;;;;;;;23.75;19.23;;;;;;;;;;2090671;28;20033;-55
2023/09/26 03:14:03;;;;;;;23.27;17.15;;;;;;;;;;2090261;28;20046;-55
2023/09/26 03:15:06;;;;;;;22.77;17.67;;;;;;;;;;2090822;28;20499;-55
2023/09/26 03:16:08;;;;;;;24.73;17.77;;;;;;;;;;2090810;28;20048;-55
2023/09/26 03:17:10;;;;;;;22.52;18.10;;;;;;;;;;2090170;28;20448;-55
2023/09/26 03:18:11;;;;;;;28.10;19.00;;;;;;;;;;2090635;28;20064;-55
2023/09/26 03:19:12;;;;;;;20.58;15.50;;;;;;;;;;2090234;28;20052;-55
2023/09/26 03:20:15;;;;;;;26.88;21.13;;;;;;;;;;2090264;28;20041;-55
2023/09/26 03:21:16;;;;;;;24.50;16.40;;;;;;;;;;2091136;28;20507;-55
2023/09/26 03:22:16;;;;;;;19.15;15.73;;;;;;;;;;2090241;28;20052;-55
2023/09/26 03:23:17;;;;;;;20.30;15.55;;;;;;;;;;2090137;28;20102;-55
2023/09/26 03:24:18;;;;;;;18.65;15.95;;;;;;;;;;2089529;28;20041;-54
2023/09/26 03:25:19;;;;;;;19.60;15.88;;;;;;;;;;2090706;28;20036;-55
2023/09/26 03:26:20;;;;;;;21.40;17.00;;;;;;;;;;2091109;28;20428;-55
2023/09/26 03:27:20;;;;;;;21.02;16.58;;;;;;;;;;2091135;28;20492;-55
2023/09/26 03:28:21;;;;;;;27.27;19.67;;;;;;;;;;2090967;28;20087;-55
2023/09/26 03:29:23;;;;;;;30.35;21.73;;;;;;;;;;2090762;28;20040;-55
2023/09/26 03:30:25;;;;;;;25.42;20.25;;;;;;;;;;2082383;28;20053;-54
2023/09/26 03:31:26;;;;;;;29.10;21.42;;;;;;;;;;2090452;28;20401;-55
2023/09/26 03:32:27;;;;;;;31.58;23.30;;;;;;;;;;2089955;28;20051;-55
2023/09/26 03:33:27;;;;;;;32.42;22.92;;;;;;;;;;2082054;28;20049;-55
2023/09/26 03:34:28;;;;;;;29.52;22.33;;;;;;;;;;2082155;28;20041;-55
2023/09/26 03:35:30;;;;;;;33.15;24.38;;;;;;;;;;2081535;28;20072;-55
2023/09/26 03:36:30;;;;;;;37.75;26.02;;;;;;;;;;2089881;28;20052;-55
2023/09/26 03:37:31;;;;;;;36.17;25.63;;;;;;;;;;2089839;28;20420;-55
2023/09/26 03:38:32;;;;;;;38.88;28.10;;;;;;;;;;2090468;28;20033;-55
2023/09/26 03:39:33;;;;;;;38.63;28.63;;;;;;;;;;2090155;28;20048;-55
2023/09/26 03:40:34;;;;;;;40.10;27.45;;;;;;;;;;2090312;28;20048;-55
2023/09/26 03:41:35;;;;;;;41.15;28.40;;;;;;;;;;2090139;28;20477;-55
2023/09/26 03:42:35;;;;;;;38.22;27.88;;;;;;;;;;2091052;28;20033;-55
2023/09/26 03:43:36;;;;;;;37.88;27.85;;;;;;;;;;2091363;28;20089;-55
2023/09/26 03:44:37;;;;;;;39.65;27.33;;;;;;;;;;2090941;28;20082;-55
2023/09/26 03:45:38;;;;;;;40.97;27.60;;;;;;;;;;2090911;28;20044;-54
2023/09/26 03:46:38;;;;;;;37.22;25.30;;;;;;;;;;2090990;28;20033;-55
2023/09/26 03:47:39;;;;;;;37.50;28.30;;;;;;;;;;2090910;28;20412;-55
2023/09/26 03:48:40;;;;;;;42.65;29.77;;;;;;;;;;2090892;28;20033;-55
2023/09/26 03:49:40;;;;;;;44.88;31.33;;;;;;;;;;2090899;28;20044;-55
2023/09/26 03:50:42;;;;;;;40.35;29.65;;;;;;;;;;2091180;28;20052;-55
2023/09/26 03:51:43;;;;;;;41.58;27.10;;;;;;;;;;2090292;28;20049;-55
2023/09/26 03:52:43;;;;;;;37.30;28.10;;;;;;;;;;2090891;28;20469;-55
2023/09/26 03:53:44;;;;;;;38.47;27.58;;;;;;;;;;2091014;28;20041;-55
2023/09/26 03:54:45;;;;;;;39.58;28.77;;;;;;;;;;2090512;28;20430;-54
2023/09/26 03:55:55;;;;;;;42.53;29.55;;;;;;;;;;2090855;28;20037;-55
2023/09/26 03:56:56;;;;;;;41.97;30.17;;;;;;;;;;2090562;28;20049;-54
2023/09/26 03:57:56;;;;;;;41.90;30.88;;;;;;;;;;2091060;28;20033;-55
2023/09/26 03:58:57;;;;;;;56.40;37.47;;;;;;;;;;2090864;28;20496;-55
2023/09/26 03:59:58;;;;;;;53.90;35.95;;;;;;;;;;2090924;28;20033;-55
2023/09/26 04:01:11;;;;;;;56.17;35.78;;;;;;;;;;2090811;28;20443;-54
2023/09/26 04:02:12;;;;;;;52.38;34.85;;;;;;;;;;2090561;28;20052;-55
2023/09/26 04:03:13;;;;;;;47.92;33.40;;;;;;;;;;2090976;28;20036;-55
2023/09/26 04:04:14;;;;;;;48.67;33.70;;;;;;;;;;2090966;28;20068;-55
2023/09/26 04:05:14;;;;;;;49.47;34.75;;;;;;;;;;2090773;28;20412;-56
2023/09/26 04:06:15;;;;;;;50.47;35.30;;;;;;;;;;2090914;28;20045;-54
2023/09/26 04:07:16;;;;;;;53.80;36.10;;;;;;;;;;2090767;28;20396;-55
2023/09/26 04:08:17;;;;;;;51.85;35.70;;;;;;;;;;2090741;28;20044;-55
2023/09/26 04:09:17;;;;;;;53.25;36.75;;;;;;;;;;2090919;28;20037;-55
2023/09/26 04:10:18;;;;;;;52.08;32.13;;;;;;;;;;2090799;28;20032;-55
2023/09/26 04:11:19;;;;;;;50.50;34.65;;;;;;;;;;2091164;28;20045;-54
2023/09/26 04:12:20;;;;;;;43.63;31.92;;;;;;;;;;2090761;28;20520;-55
2023/09/26 04:13:20;;;;;;;43.33;30.40;;;;;;;;;;2090833;28;20040;-55
2023/09/26 04:14:21;;;;;;;45.83;30.05;;;;;;;;;;2090995;28;20064;-54
2023/09/26 04:15:22;;;;;;;44.80;32.25;;;;;;;;;;2090675;28;20052;-55
2023/09/26 04:16:22;;;;;;;45.72;32.28;;;;;;;;;;2091048;28;20033;-55
2023/09/26 04:17:23;;;;;;;44.13;29.92;;;;;;;;;;2091105;28;20033;-54
2023/09/26 04:18:24;;;;;;;43.08;31.20;;;;;;;;;;2090778;28;20037;-55
2023/09/26 04:19:25;;;;;;;56.35;36.67;;;;;;;;;;2090699;28;20397;-55
2023/09/26 04:20:25;;;;;;;63.20;35.60;;;;;;;;;;2090738;28;20037;-54
2023/09/26 04:21:26;;;;;;;63.20;34.90;;;;;;;;;;2090648;28;20132;-55
2023/09/26 04:22:28;;;;;;;59.90;37.35;;;;;;;;;;2090753;28;20174;-54
2023/09/26 04:23:29;;;;;;;67.97;35.30;;;;;;;;;;2090891;28;20089;-55
2023/09/26 04:24:29;;;;;;;69.10;38.40;;;;;;;;;;2090733;28;20496;-55
2023/09/26 04:25:31;;;;;;;50.72;34.60;;;;;;;;;;2091026;28;20036;-54
2023/09/26 04:26:32;;;;;;;57.58;37.17;;;;;;;;;;2090627;28;20041;-54
2023/09/26 04:27:33;;;;;;;58.63;36.72;;;;;;;;;;2090572;28;20437;-55
2023/09/26 04:28:33;;;;;;;56.97;35.97;;;;;;;;;;2091004;28;20384;-55
2023/09/26 04:29:34;;;;;;;51.55;33.28;;;;;;;;;;2090828;28;20037;-54
2023/09/26 04:30:35;;;;;;;55.92;35.67;;;;;;;;;;2090682;28;20052;-55
2023/09/26 04:31:36;;;;;;;52.30;35.70;;;;;;;;;;2090742;28;20037;-55
2023/09/26 04:32:37;;;;;;;49.45;30.70;;;;;;;;;;2090695;28;20365;-55
2023/09/26 04:33:37;;;;;;;55.33;35.30;;;;;;;;;;2090643;28;20048;-55
2023/09/26 04:34:38;;;;;;;54.55;33.65;;;;;;;;;;2090753;28;20036;-55
2023/09/26 04:35:39;;;;;;;50.97;33.45;;;;;;;;;;2090573;28;20043;-55
2023/09/26 04:36:40;;;;;;;48.78;32.72;;;;;;;;;;2090690;28;20037;-55
2023/09/26 04:37:41;;;;;;;48.97;33.15;;;;;;;;;;2090778;28;20033;-55
2023/09/26 04:38:41;;;;;;;47.53;33.00;;;;;;;;;;2090799;28;20048;-55
2023/09/26 04:39:42;;;;;;;53.92;34.58;;;;;;;;;;2090428;28;20029;-54
2023/09/26 04:40:43;;;;;;;50.65;33.95;;;;;;;;;;2090805;28;20419;-55
2023/09/26 04:41:45;;;;;;;52.95;34.60;;;;;;;;;;2090793;28;20025;-55
2023/09/26 04:42:48;;;;;;;52.67;34.25;;;;;;;;;;2090194;28;20045;-56
2023/09/26 04:43:49;;;;;;;53.38;34.22;;;;;;;;;;2090372;28;20377;-55
2023/09/26 04:44:50;;;;;;;54.45;34.05;;;;;;;;;;2090473;28;20049;-55
2023/09/26 04:45:51;;;;;;;52.75;34.85;;;;;;;;;;2089705;28;20041;-55
2023/09/26 04:46:51;;;;;;;50.60;32.40;;;;;;;;;;2090006;28;20160;-55
2023/09/26 04:47:54;;;;;;;52.40;34.88;;;;;;;;;;2090483;28;20049;-55
2023/09/26 04:48:55;;;;;;;58.28;35.78;;;;;;;;;;2090520;28;20044;-54
2023/09/26 04:49:55;;;;;;;61.72;37.67;;;;;;;;;;2090427;28;20049;-55
2023/09/26 04:50:56;;;;;;;63.03;35.58;;;;;;;;;;2089921;28;20107;-56
2023/09/26 04:51:57;;;;;;;58.65;36.25;;;;;;;;;;2090064;28;20432;-55
2023/09/26 04:52:59;;;;;;;57.20;34.67;;;;;;;;;;2090807;28;20448;-55
2023/09/26 04:54:01;;;;;;;60.00;36.70;;;;;;;;;;2090100;28;20473;-55
2023/09/26 04:55:02;;;;;;;57.08;35.25;;;;;;;;;;2090478;28;20378;-55
2023/09/26 04:56:03;;;;;;;60.22;36.08;;;;;;;;;;2090531;28;20116;-55
2023/09/26 04:57:06;;;;;;;56.40;34.78;;;;;;;;;;2090436;28;20041;-55
2023/09/26 04:58:06;;;;;;;51.53;33.20;;;;;;;;;;2090326;28;20040;-54
2023/09/26 04:59:07;;;;;;;52.63;32.05;;;;;;;;;;2090311;28;20568;-54
2023/09/26 05:00:08;;;;;;;51.72;33.58;;;;;;;;;;2090371;28;20473;-55
2023/09/26 05:01:15;;;;;;;53.13;34.95;;;;;;;;;;2090268;28;20048;-55
2023/09/26 05:02:16;;;;;;;57.17;33.70;;;;;;;;;;2090656;28;20033;-55
2023/09/26 05:03:17;;;;;;;51.42;33.17;;;;;;;;;;2090765;28;20052;-55
2023/09/26 05:04:17;;;;;;;56.45;34.22;;;;;;;;;;2090501;28;20068;-55
2023/09/26 05:05:19;;;;;;;53.55;35.22;;;;;;;;;;2090383;28;20032;-55
2023/09/26 05:06:19;;;;;;;48.40;32.05;;;;;;;;;;2090309;28;20036;-55
2023/09/26 05:07:20;;;;;;;47.67;32.83;;;;;;;;;;2090599;28;20469;-55
2023/09/26 05:08:21;;;;;;;52.72;35.08;;;;;;;;;;2090248;28;20136;-55
2023/09/26 05:09:23;;;;;;;49.03;33.58;;;;;;;;;;2090402;28;20060;-55
2023/09/26 05:10:23;;;;;;;55.97;33.08;;;;;;;;;;2089956;28;20056;-55
2023/09/26 05:11:26;;;;;;;54.90;33.33;;;;;;;;;;2090279;28;20036;-55
2023/09/26 05:12:26;;;;;;;47.75;31.52;;;;;;;;;;2090266;28;20473;-55
2023/09/26 05:13:27;;;;;;;48.50;32.38;;;;;;;;;;2090267;28;20029;-55
2023/09/26 05:14:28;;;;;;;51.17;31.73;;;;;;;;;;2090152;28;20044;-55
2023/09/26 05:15:29;;;;;;;52.45;33.42;;;;;;;;;;2090386;28;20052;-55
2023/09/26 05:16:30;;;;;;;54.20;32.92;;;;;;;;;;2089089;28;20041;-55
2023/09/26 05:17:31;;;;;;;48.10;32.25;;;;;;;;;;2089487;28;20045;-55
2023/09/26 05:18:32;;;;;;;49.70;30.40;;;;;;;;;;2090375;28;20039;-55
2023/09/26 05:19:32;;;;;;;47.03;29.98;;;;;;;;;;2090252;28;20051;-55
2023/09/26 05:20:34;;;;;;;43.45;29.30;;;;;;;;;;2090500;28;20044;-55
2023/09/26 05:21:35;;;;;;;46.25;29.27;;;;;;;;;;2089615;28;20037;-55
2023/09/26 05:22:36;;;;;;;49.10;28.50;;;;;;;;;;2089228;28;20037;-55
2023/09/26 05:23:36;;;;;;;42.63;28.23;;;;;;;;;;2090473;28;20041;-55
2023/09/26 05:24:37;;;;;;;43.72;29.63;;;;;;;;;;2090285;28;20033;-55
2023/09/26 05:25:38;;;;;;;40.35;26.67;;;;;;;;;;2089959;28;20100;-55
2023/09/26 05:26:38;;;;;;;35.78;25.63;;;;;;;;;;2090140;28;20041;-55
2023/09/26 05:27:39;;;;;;;36.72;25.65;;;;;;;;;;2090143;28;20048;-56
2023/09/26 05:28:40;;;;;;;36.00;24.73;;;;;;;;;;2090240;28;20040;-55
2023/09/26 05:29:41;;;;;;;32.60;23.65;;;;;;;;;;2089958;28;20040;-55
2023/09/26 05:30:42;;;;;;;36.10;23.23;;;;;;;;;;2090177;28;20389;-54
2023/09/26 05:31:43;;;;;;;34.70;24.05;;;;;;;;;;2090236;28;20465;-54
2023/09/26 05:32:43;;;;;;;32.08;22.52;;;;;;;;;;2089678;28;20028;-54
2023/09/26 05:33:44;;;;;;;29.20;21.90;;;;;;;;;;2089584;28;20045;-54
2023/09/26 05:34:45;;;;;;;28.42;21.23;;;;;;;;;;2090334;28;20365;-54
2023/09/26 05:35:45;;;;;;;28.02;20.52;;;;;;;;;;2090504;28;20508;-55
2023/09/26 05:36:46;;;;;;;25.00;18.02;;;;;;;;;;2090463;28;20049;-54
2023/09/26 05:37:47;;;;;;;23.02;17.58;;;;;;;;;;2090252;28;20044;-55
2023/09/26 05:38:47;;;;;;;23.17;18.45;;;;;;;;;;2091165;28;20070;-56
2023/09/26 05:39:48;;;;;;;21.73;16.63;;;;;;;;;;2091591;28;20052;-54
2023/09/26 05:40:49;;;;;;;21.95;16.33;;;;;;;;;;2091368;28;20392;-57
2023/09/26 05:41:50;;;;;;;18.90;15.27;;;;;;;;;;2091376;28;20049;-57
2023/09/26 05:42:51;;;;;;;16.52;14.70;;;;;;;;;;2090826;28;20029;-56
2023/09/26 05:43:52;;;;;;;20.60;15.52;;;;;;;;;;2090206;28;20051;-54
2023/09/26 05:44:52;;;;;;;19.80;14.70;;;;;;;;;;2090259;28;20040;-55
2023/09/26 05:45:53;;;;;;;19.90;14.95;;;;;;;;;;2090619;28;20366;-54
2023/09/26 05:46:54;;;;;;;17.25;13.52;;;;;;;;;;2090060;28;20532;-55
2023/09/26 05:47:54;;;;;;;20.25;14.63;;;;;;;;;;2090061;28;20491;-55
2023/09/26 05:48:55;;;;;;;17.55;13.90;;;;;;;;;;2090375;28;20041;-54
2023/09/26 05:49:56;;;;;;;16.13;13.68;;;;;;;;;;2090294;28;20036;-55
2023/09/26 05:50:57;;;;;;;18.27;14.82;;;;;;;;;;2090067;28;20049;-54
2023/09/26 05:51:58;;;;;;;17.35;14.30;;;;;;;;;;2090051;28;20481;-55
2023/09/26 05:52:59;;;;;;;20.70;14.63;;;;;;;;;;2089968;28;20029;-55
2023/09/26 05:54:00;;;;;;;16.67;13.90;;;;;;;;;;2090078;28;20473;-55
2023/09/26 05:55:01;;;;;;;19.25;14.63;;;;;;;;;;2090125;28;20037;-55
2023/09/26 05:56:03;;;;;;;18.55;14.05;;;;;;;;;;2089203;28;20048;-55